Hauptseite
METAR-TAF:

METAR-TAF

Flughäfen :

Bridgeport, Connecticut, Vereinigte Staaten

Breite: 41-09-30N, Länge: 073-07-44W, Höhe: 3 m

Beobachtung

Neuester Wetterbericht von vor 22 Minuten, um 21:52 UTC
Wind 5 kt aus Ost
Temperatur 18°C
Luftfeuchtigkeit 77%
Luftdruck 1016 hPa
Sichtweite: 16.1 km
Himmel klar

METAR: KBDR 202152Z 08005KT 10SM CLR 18/14 A3000 RMK AO2 SLP158 T01830144

Zeit: 18:14 (22:14 UTC)

Prognose

Neuester Wetterbericht von vor 2 Stunden und 39 Minuten, um 19:35 UTC
Gültige Prognose vom 20 um 20 UTC bis 21 um 18 UTC
Wind 8 kt aus Süd
Sichtweite: 10 km
Leicht bewölkt in der Höhe von 3500 ft
Ab 21 um 0100 UTC
Wind 4 kt aus unterschiedlichen Richtungen
Sichtweite: 10 km
Aufgelockert bewölkt in der Höhe von 2000 ft
Durchbrochene Bewölkung in der Höhe von 3500 ft

TAF: KBDR 201935Z 2020/2118 18008KT P6SM FEW035 FM210100 VRB04KT P6SM SCT020 BKN035

Wetterbeobachtungen und Prognosen von mehr als 4000 Flughäfen (METAR und TAF Bericht).

Die verfügbaren Stationen werden durch gelbe und rote Markierungen auf der Karte dargestellt.

Führen Sie die Maus auf sie, um den Namen der Station zu sehen.

Darauf klicken, um die Beobachtung von Wetterbeobachtungen und Prognosen zu sehen.

Um die Karte zu ändern : klicken Sie auf den grünen Tasten mit einem schwarzen Kreuz Zum Vergrößern, auf den grünen Button mit einem Gedankenstrich zu verkleinern, oder auf die grünen Pfeile für benachbarte Karten.


METAR-TAF: